Decoded METAR Reports


Created by using MetarWeather

Station Name Location Elevation Time Temperature Dew Point RH Heat Index Wind Visibility Pressure Sky Condition Weather Remarks METAR
Alexandroupolis  40.85N 25.92E  3m  23/04/2014 21:20:00  20.0C  16.0C  78%  N/A  7 km/h, NE (40 degrees)  > 10000m  1012.9 mb  Few clouds at 610m
Scattered clouds at 2400m
Broken clouds at 5500m
 
      LGAL 231820Z 04004KT 9999 FEW020 SCT080 BKN180 20/16 Q1013 
Andravida (Civ/A  37.92N 21.27E  12m  23/04/2014 20:20:00  20.0C  12.0C  60%  N/A  30 km/h, S (190 degrees)  > 10000m  1007.1 mb           LGAD 231720Z 19016KT 150V220 CAVOK 20/12 Q1007 
Araxos (Civ/Afb)  38.17N 21.42E  15m  23/04/2014 20:50:00  21.0C  10.0C  49%  N/A  28 km/h, SSW (210 degrees)  > 10000m  1007.1 mb           LGRX 231750Z 21015KT CAVOK 21/10 Q1007 NOSIG 
Athens/Elef-Ven  37.93N 23.95E  94m  23/04/2014 20:50:00  19.0C  12.0C  64%  N/A  4 km/h, Variable  > 10000m  1011.9 mb  Few clouds at 910m
Broken clouds at 4900m
 
      LGAV 231750Z VRB02KT 9999 FEW030 BKN160 19/12 Q1012 NOSIG 
Chios Airport  38.32N 26.12E  4m  23/04/2014 20:50:00  21.0C  13.0C  60%  N/A  Calm  > 10000m  1012.9 mb  Few clouds at 1200m
Broken clouds at 2400m
Broken clouds at 5500m
 
      LGHI 231750Z 00000KT 9999 FEW040 BKN080 BKN180 21/13 Q1013 
Elefsis (Hel-Afb  38.07N 23.55E  31m  23/04/2014 20:50:00  22.0C  8.0C  41%  25.0C  7 km/h, SE (140 degrees)  > 10000m  1010.8 mb  Few clouds at 760m
Scattered clouds at 2100m
 
      LGEL 231750Z 14004KT 9999 FEW025 SCT070 22/08 Q1011 
Ioannis Kapodist  39.60N 19.92E  2m  23/04/2014 21:20:00  19.0C  15.0C  78%  N/A  20 km/h, SE (140 degrees)  > 10000m  1005.1 mb           LGKR 231820Z 14011KT CAVOK 19/15 Q1005 NOSIG 
Iraklion (Civ/Af  35.32N 25.17E  39m  23/04/2014 21:20:00  25.0C  9.0C  36%  25.6C  6 km/h, NW (310 degrees)  > 10000m  1010.2 mb  Few clouds at 2400m
 
      LGIR 231820Z 31003KT 9999 FEW080 25/09 Q1010 NOSIG 
Kalamata (Hel-Af  37.07N 22.02E  8m  23/04/2014 21:20:00  19.0C  13.0C  68%  N/A  7 km/h, SSE (150 degrees)    1010.2 mb           LGKL 231820Z AUTO 15004KT //// // ////// 19/13 Q1010 RE// 
Karpathos  35.42N 27.15E  20m  23/04/2014 20:50:00  20.0C  17.0C  83%  N/A  13 km/h, ENE (70 degrees)  > 10000m  1012.9 mb           LGKP 231750Z 07007KT CAVOK 20/17 Q1013 
Kavala/Chrisoupo  40.92N 24.62E  5m  23/04/2014 21:20:00  19.0C  15.0C  78%  N/A  7 km/h, E (90 degrees)  > 10000m  1012.9 mb  Few clouds at 1200m
Broken clouds at 2400m
Overcast at 5500m
 
      LGKV 231820Z 09004KT 9999 FEW040 BKN080 OVC180 19/15 Q1013 
Kefallinia  38.12N 20.50E  18m  23/04/2014 17:50:00  22.0C  13.0C  57%  24.7C  31 km/h, ESE (110 degrees)  > 10000m  1006.1 mb  Few clouds at 610m
Overcast at 5500m
 
      LGKF 231450Z 11017KT 9999 FEW020 OVC180 22/13 Q1006 
Kos Airport  36.80N 27.08E  130m  23/04/2014 21:20:00  19.0C  15.0C  78%  N/A  17 km/h, ESE (120 degrees)  > 10000m  1013.9 mb           LGKO 231820Z 12009KT CAVOK 19/15 Q1014 
Kozani (Civ/Army  40.28N 21.85E  630m  23/04/2014 20:50:00  13.0C  12.0C  94%  N/A  Calm  > 10000m  1011.9 mb           LGKZ 231750Z 00000KT CAVOK 13/12 Q1012 
Limnos Island Ar  39.92N 25.23E  5m  23/04/2014 20:50:00  17.0C  14.0C  83%  N/A  9 km/h, W (270 degrees)  > 10000m  1012.9 mb  Scattered clouds at 550m
Broken clouds at 2400m
Overcast at 5500m
 
      LGLM 231750Z 27005KT 9999 SCT018 BKN080 OVC180 17/14 Q1013 
Mikonos Island  37.43N 25.35E  120m  23/04/2014 20:50:00  20.0C  12.0C  60%  N/A  19 km/h, SE (130 degrees)  > 10000m  1011.9 mb  Few clouds at 760m
Overcast at 3000m
 
      LGMK 231750Z 13010KT 9999 FEW025 OVC100 20/12 Q1012 
Mitilini  39.05N 26.60E  17m  23/04/2014 20:50:00  22.0C  14.0C  61%  24.4C  Calm  > 10000m  1013.9 mb  Few clouds at 910m
Broken clouds at 2400m
Broken clouds at 5500m
 
      LGMT 231750Z 00000KT 9999 FEW030 BKN080 BKN180 22/14 Q1014 
Paros  37.00N 25.07E  36m  23/04/2014 20:50:00  22.0C  9.0C  43%  25.0C  33 km/h, ESE (120 degrees)    1010.8 mb           LGPA 231750Z AUTO 12018KT //// // ////// 22/09 Q1011 RE// 
Preveza/Aktion  38.62N 20.77E  4m  23/04/2014 20:50:00  20.0C  13.0C  64%  N/A  33 km/h, 52 km/h gusts, SSE (160 degrees)  > 10000m  1007.1 mb  Few clouds at 760m
Scattered clouds at 5500m
 
      LGPZ 231750Z 16018G28KT 9999 FEW025 SCT180 20/13 Q1007 NOSIG 
Rhodes/Diagoras  36.40N 28.08E  5m  23/04/2014 21:20:00  19.0C  17.0C  88%  N/A  6 km/h, Variable  > 10000m  1013.9 mb           LGRP 231820Z VRB03KT CAVOK 19/17 Q1014 NOSIG 
Samos Airport  37.68N 26.92E  6m  23/04/2014 17:50:00  24.0C  14.0C  54%  25.4C  4 km/h, Variable  > 10000m  1013.9 mb           LGSM 231450Z VRB02KT CAVOK 24/14 Q1014 
Santorini Island  36.40N 25.48E  40m  23/04/2014 20:50:00  20.0C  14.0C  68%  N/A  17 km/h, S (170 degrees)  > 10000m  1011.9 mb  Few clouds at 760m
Scattered clouds at 2400m
Broken clouds at 5500m
 
      LGSR 231750Z 17009KT 9999 FEW025 SCT080 BKN180 20/14 Q1012 NOSIG 
Skiathos Island  39.18N 23.50E  15m  23/04/2014 20:50:00  16.0C  15.0C  94%  N/A  15 km/h, N (10 degrees)  > 10000m  1012.9 mb  Few clouds at 370m
Scattered clouds at 760m
Overcast at 2400m
 
      LGSK 231750Z 01008KT 9999 FEW012 SCT025 OVC080 16/15 Q1013 
Souda/Khania (Af  35.47N 24.12E  150m  23/04/2014 21:20:00  26.0C  0.0C  18%  25.4C  31 km/h, 52 km/h gusts, SSE (150 degrees)  > 10000m  1010.2 mb  Few clouds at 760m
Scattered clouds at 2400m
Broken clouds at 5500m
 
      LGSA 231820Z 15017G28KT 9999 FEW025 SCT080 BKN180 26/M00 Q1010 
Syros  37.42N 24.95E  72m  23/04/2014 20:50:00  18.0C  14.0C  77%  N/A  9 km/h, ENE (60 degrees)    1011.9 mb           LGSO 231750Z AUTO 06005KT 010V090 //// // ////// 18/14 Q1012 RE// 
Thessaloniki/Mik  40.52N 22.97E  7m  23/04/2014 20:50:00  17.0C  14.0C  83%  N/A  9 km/h, E (80 degrees)  > 10000m  1011.9 mb  Few cumulus clouds at 550m
Scattered clouds at 910m
Broken clouds at 2400m
 
Light Rain
 
   LGTS 231750Z 08005KT 9999 -RA FEW018TCU SCT030 BKN080 17/14 Q1012 NOSIG 
Zakinthos Airpor  37.75N 20.87E  3m  23/04/2014 20:50:00  18.0C  15.0C  83%  N/A  26 km/h, S (170 degrees)  > 10000m  1007.1 mb  Scattered clouds at 550m
Broken clouds at 5500m
 
      LGZA 231750Z 17014KT 9999 SCT018 BKN180 18/15 Q1007